sensor_id;sensor_type;location;lat;lon;timestamp;temperature;humidity
28189;DHT22;15471;51.166;4.470;2022-08-11T00:00:41;21.10;90.60
28189;DHT22;15471;51.166;4.470;2022-08-11T00:03:12;21.10;90.70
28189;DHT22;15471;51.166;4.470;2022-08-11T00:05:56;21.00;91.00
28189;DHT22;15471;51.166;4.470;2022-08-11T00:08:24;21.00;91.30
28189;DHT22;15471;51.166;4.470;2022-08-11T00:10:58;20.90;91.70
28189;DHT22;15471;51.166;4.470;2022-08-11T00:13:38;20.70;92.30
28189;DHT22;15471;51.166;4.470;2022-08-11T00:16:12;20.70;92.40
28189;DHT22;15471;51.166;4.470;2022-08-11T00:18:41;20.80;92.30
28189;DHT22;15471;51.166;4.470;2022-08-11T00:21:08;20.90;92.30
28189;DHT22;15471;51.166;4.470;2022-08-11T00:23:45;20.80;92.40
28189;DHT22;15471;51.166;4.470;2022-08-11T00:26:13;20.70;93.10
28189;DHT22;15471;51.166;4.470;2022-08-11T00:28:40;20.60;93.50
28189;DHT22;15471;51.166;4.470;2022-08-11T00:31:08;20.50;93.80
28189;DHT22;15471;51.166;4.470;2022-08-11T00:33:42;20.50;94.10
28189;DHT22;15471;51.166;4.470;2022-08-11T00:36:12;20.40;94.50
28189;DHT22;15471;51.166;4.470;2022-08-11T00:38:41;20.40;94.60
28189;DHT22;15471;51.166;4.470;2022-08-11T00:47:01;20.40;95.10
28189;DHT22;15471;51.166;4.470;2022-08-11T00:52:50;20.30;95.90
28189;DHT22;15471;51.166;4.470;2022-08-11T01:13:33;19.90;99.20
28189;DHT22;15471;51.166;4.470;2022-08-11T01:15:57;19.90;99.20
28189;DHT22;15471;51.166;4.470;2022-08-11T01:18:45;19.80;99.60
28189;DHT22;15471;51.166;4.470;2022-08-11T01:48:28;19.40;99.90
28189;DHT22;15471;51.166;4.470;2022-08-11T01:54:01;19.30;99.90
28189;DHT22;15471;51.166;4.470;2022-08-11T01:59:36;19.20;99.90
28189;DHT22;15471;51.166;4.470;2022-08-11T02:11:00;19.10;99.90
28189;DHT22;15471;51.166;4.470;2022-08-11T02:14:11;19.10;99.90
28189;DHT22;15471;51.166;4.470;2022-08-11T02:22:51;18.90;99.90
28189;DHT22;15471;51.166;4.470;2022-08-11T02:28:30;18.80;99.90
28189;DHT22;15471;51.166;4.470;2022-08-11T02:34:42;18.70;99.90
28189;DHT22;15471;51.166;4.470;2022-08-11T02:37:44;18.70;99.90
28189;DHT22;15471;51.166;4.470;2022-08-11T02:48:38;18.70;99.90
28189;DHT22;15471;51.166;4.470;2022-08-11T02:54:25;18.60;99.90
28189;DHT22;15471;51.166;4.470;2022-08-11T02:57:03;18.50;99.90
28189;DHT22;15471;51.166;4.470;2022-08-11T03:08:06;18.30;99.90
28189;DHT22;15471;51.166;4.470;2022-08-11T03:10:37;18.30;99.90
28189;DHT22;15471;51.166;4.470;2022-08-11T03:13:18;18.20;99.90
28189;DHT22;15471;51.166;4.470;2022-08-11T03:16:18;18.10;99.90
28189;DHT22;15471;51.166;4.470;2022-08-11T03:37:04;17.90;99.90
28189;DHT22;15471;51.166;4.470;2022-08-11T03:42:40;17.90;99.90
28189;DHT22;15471;51.166;4.470;2022-08-11T03:53:34;17.80;99.90
28189;DHT22;15471;51.166;4.470;2022-08-11T04:02:08;17.80;99.90
28189;DHT22;15471;51.166;4.470;2022-08-11T04:16:15;18.00;99.90
28189;DHT22;15471;51.166;4.470;2022-08-11T04:19:10;18.20;99.90
28189;DHT22;15471;51.166;4.470;2022-08-11T04:22:10;18.10;99.90
28189;DHT22;15471;51.166;4.470;2022-08-11T04:27:33;17.90;99.90
28189;DHT22;15471;51.166;4.470;2022-08-11T04:30:12;17.90;99.90
28189;DHT22;15471;51.166;4.470;2022-08-11T04:35:38;17.90;99.90
28189;DHT22;15471;51.166;4.470;2022-08-11T04:38:37;17.80;99.90
28189;DHT22;15471;51.166;4.470;2022-08-11T04:56:31;18.10;99.90
28189;DHT22;15471;51.166;4.470;2022-08-11T04:59:47;18.10;99.90
28189;DHT22;15471;51.166;4.470;2022-08-11T05:03:11;18.20;99.90
28189;DHT22;15471;51.166;4.470;2022-08-11T05:12:16;18.00;99.90
28189;DHT22;15471;51.166;4.470;2022-08-11T05:14:51;18.00;99.90
28189;DHT22;15471;51.166;4.470;2022-08-11T05:17:39;18.10;99.90
28189;DHT22;15471;51.166;4.470;2022-08-11T05:20:26;18.20;99.90
28189;DHT22;15471;51.166;4.470;2022-08-11T05:23:11;18.10;99.90
28189;DHT22;15471;51.166;4.470;2022-08-11T05:25:59;18.40;99.90
28189;DHT22;15471;51.166;4.470;2022-08-11T05:28:51;18.60;99.90
28189;DHT22;15471;51.166;4.470;2022-08-11T05:31:38;18.80;99.90
28189;DHT22;15471;51.166;4.470;2022-08-11T05:34:28;18.80;99.90
28189;DHT22;15471;51.166;4.470;2022-08-11T05:40:14;18.70;99.90
28189;DHT22;15471;51.166;4.470;2022-08-11T05:43:02;18.80;99.90
28189;DHT22;15471;51.166;4.470;2022-08-11T05:46:02;18.80;99.90
28189;DHT22;15471;51.166;4.470;2022-08-11T05:48:47;18.90;99.90
28189;DHT22;15471;51.166;4.470;2022-08-11T05:51:43;19.10;99.90
28189;DHT22;15471;51.166;4.470;2022-08-11T05:54:28;19.30;99.90
28189;DHT22;15471;51.166;4.470;2022-08-11T05:57:22;19.40;99.90
28189;DHT22;15471;51.166;4.470;2022-08-11T06:00:03;19.40;99.90
28189;DHT22;15471;51.166;4.470;2022-08-11T06:02:32;19.60;99.90
28189;DHT22;15471;51.166;4.470;2022-08-11T06:05:00;19.60;99.90
28189;DHT22;15471;51.166;4.470;2022-08-11T06:07:30;19.60;99.90
28189;DHT22;15471;51.166;4.470;2022-08-11T06:09:58;19.80;99.90
28189;DHT22;15471;51.166;4.470;2022-08-11T06:12:28;19.90;99.90
28189;DHT22;15471;51.166;4.470;2022-08-11T06:15:00;20.00;99.90
28189;DHT22;15471;51.166;4.470;2022-08-11T06:17:30;20.00;99.90
28189;DHT22;15471;51.166;4.470;2022-08-11T06:19:59;20.10;99.90
28189;DHT22;15471;51.166;4.470;2022-08-11T06:22:26;20.10;99.90
28189;DHT22;15471;51.166;4.470;2022-08-11T06:24:56;20.20;99.90
28189;DHT22;15471;51.166;4.470;2022-08-11T06:27:24;20.20;99.90
28189;DHT22;15471;51.166;4.470;2022-08-11T06:29:52;20.40;99.90
28189;DHT22;15471;51.166;4.470;2022-08-11T06:32:20;20.60;99.90
28189;DHT22;15471;51.166;4.470;2022-08-11T06:35:17;20.70;99.90
28189;DHT22;15471;51.166;4.470;2022-08-11T06:38:05;20.80;99.90
28189;DHT22;15471;51.166;4.470;2022-08-11T06:40:50;20.80;99.90
28189;DHT22;15471;51.166;4.470;2022-08-11T06:46:10;21.10;99.90
28189;DHT22;15471;51.166;4.470;2022-08-11T06:48:40;21.10;99.90
28189;DHT22;15471;51.166;4.470;2022-08-11T06:51:09;21.10;99.90
28189;DHT22;15471;51.166;4.470;2022-08-11T06:53:52;21.10;99.90
28189;DHT22;15471;51.166;4.470;2022-08-11T06:56:22;21.20;99.90
28189;DHT22;15471;51.166;4.470;2022-08-11T06:59:09;21.20;99.90
28189;DHT22;15471;51.166;4.470;2022-08-11T07:02:20;21.30;99.90
28189;DHT22;15471;51.166;4.470;2022-08-11T07:05:02;21.50;99.90
28189;DHT22;15471;51.166;4.470;2022-08-11T07:14:17;22.20;99.90
28189;DHT22;15471;51.166;4.470;2022-08-11T07:17:07;22.30;99.90
28189;DHT22;15471;51.166;4.470;2022-08-11T07:19:36;22.40;99.90
28189;DHT22;15471;51.166;4.470;2022-08-11T07:22:25;22.50;99.90
28189;DHT22;15471;51.166;4.470;2022-08-11T07:25:14;22.50;99.90
28189;DHT22;15471;51.166;4.470;2022-08-11T07:28:06;22.60;99.90
28189;DHT22;15471;51.166;4.470;2022-08-11T07:31:00;22.70;99.90
28189;DHT22;15471;51.166;4.470;2022-08-11T07:33:38;22.80;99.90
28189;DHT22;15471;51.166;4.470;2022-08-11T07:36:12;22.80;99.90
28189;DHT22;15471;51.166;4.470;2022-08-11T07:38:48;22.90;99.90
28189;DHT22;15471;51.166;4.470;2022-08-11T07:41:21;23.00;99.90
28189;DHT22;15471;51.166;4.470;2022-08-11T07:43:58;23.10;99.90
28189;DHT22;15471;51.166;4.470;2022-08-11T07:46:41;23.20;99.90
28189;DHT22;15471;51.166;4.470;2022-08-11T07:49:27;23.30;99.90
28189;DHT22;15471;51.166;4.470;2022-08-11T07:52:12;23.40;99.90
28189;DHT22;15471;51.166;4.470;2022-08-11T07:57:30;23.50;99.90
28189;DHT22;15471;51.166;4.470;2022-08-11T08:00:16;23.70;99.90
28189;DHT22;15471;51.166;4.470;2022-08-11T08:03:01;23.80;99.90
28189;DHT22;15471;51.166;4.470;2022-08-11T08:05:48;23.90;99.90
28189;DHT22;15471;51.166;4.470;2022-08-11T08:08:34;23.90;99.90
28189;DHT22;15471;51.166;4.470;2022-08-11T08:11:20;24.10;99.90
28189;DHT22;15471;51.166;4.470;2022-08-11T08:14:07;24.10;99.60
28189;DHT22;15471;51.166;4.470;2022-08-11T08:16:53;24.30;99.70
28189;DHT22;15471;51.166;4.470;2022-08-11T08:19:39;24.50;98.30
28189;DHT22;15471;51.166;4.470;2022-08-11T08:22:10;24.60;98.00
28189;DHT22;15471;51.166;4.470;2022-08-11T08:24:38;24.60;97.60
28189;DHT22;15471;51.166;4.470;2022-08-11T08:27:07;24.70;97.30
28189;DHT22;15471;51.166;4.470;2022-08-11T08:29:36;24.80;96.20
28189;DHT22;15471;51.166;4.470;2022-08-11T08:32:21;24.90;95.50
28189;DHT22;15471;51.166;4.470;2022-08-11T08:34:52;25.00;95.20
28189;DHT22;15471;51.166;4.470;2022-08-11T08:37:20;25.20;94.40
28189;DHT22;15471;51.166;4.470;2022-08-11T08:39:48;25.20;94.20
28189;DHT22;15471;51.166;4.470;2022-08-11T08:42:24;25.30;93.90
28189;DHT22;15471;51.166;4.470;2022-08-11T08:44:57;25.50;92.80
28189;DHT22;15471;51.166;4.470;2022-08-11T08:47:24;25.70;92.40
28189;DHT22;15471;51.166;4.470;2022-08-11T08:49:59;26.80;92.50
28189;DHT22;15471;51.166;4.470;2022-08-11T08:52:29;29.20;89.50
28189;DHT22;15471;51.166;4.470;2022-08-11T08:54:57;31.50;77.20
28189;DHT22;15471;51.166;4.470;2022-08-11T08:57:27;33.50;68.80
28189;DHT22;15471;51.166;4.470;2022-08-11T08:59:55;35.00;62.40
28189;DHT22;15471;51.166;4.470;2022-08-11T09:02:26;36.30;57.80
28189;DHT22;15471;51.166;4.470;2022-08-11T09:04:52;37.40;52.70
28189;DHT22;15471;51.166;4.470;2022-08-11T09:07:22;38.20;49.50
28189;DHT22;15471;51.166;4.470;2022-08-11T09:09:51;38.70;48.00
28189;DHT22;15471;51.166;4.470;2022-08-11T09:12:20;39.10;47.10
28189;DHT22;15471;51.166;4.470;2022-08-11T09:14:48;39.40;46.10
28189;DHT22;15471;51.166;4.470;2022-08-11T09:17:46;39.30;44.70
28189;DHT22;15471;51.166;4.470;2022-08-11T09:20:24;39.40;44.30
28189;DHT22;15471;51.166;4.470;2022-08-11T09:22:55;38.90;42.90
28189;DHT22;15471;51.166;4.470;2022-08-11T09:25:40;38.60;43.60
28189;DHT22;15471;51.166;4.470;2022-08-11T09:28:27;39.00;41.30
28189;DHT22;15471;51.166;4.470;2022-08-11T09:30:54;38.40;41.80
28189;DHT22;15471;51.166;4.470;2022-08-11T09:33:23;38.20;42.10
28189;DHT22;15471;51.166;4.470;2022-08-11T09:35:50;37.60;43.50
28189;DHT22;15471;51.166;4.470;2022-08-11T09:38:18;38.00;44.00
28189;DHT22;15471;51.166;4.470;2022-08-11T09:41:03;38.00;42.90
28189;DHT22;15471;51.166;4.470;2022-08-11T09:43:30;38.00;42.20
28189;DHT22;15471;51.166;4.470;2022-08-11T09:46:22;37.80;42.00
28189;DHT22;15471;51.166;4.470;2022-08-11T09:48:49;37.40;42.00
28189;DHT22;15471;51.166;4.470;2022-08-11T09:51:20;37.00;42.30
28189;DHT22;15471;51.166;4.470;2022-08-11T09:53:46;36.50;42.90
28189;DHT22;15471;51.166;4.470;2022-08-11T09:56:22;36.00;43.40
28189;DHT22;15471;51.166;4.470;2022-08-11T09:59:07;35.70;44.60
28189;DHT22;15471;51.166;4.470;2022-08-11T10:01:38;35.80;43.30
28189;DHT22;15471;51.166;4.470;2022-08-11T10:04:14;35.50;43.40
28189;DHT22;15471;51.166;4.470;2022-08-11T10:06:43;35.60;43.40
28189;DHT22;15471;51.166;4.470;2022-08-11T10:10:02;35.00;44.10
28189;DHT22;15471;51.166;4.470;2022-08-11T10:12:33;33.90;45.00
28189;DHT22;15471;51.166;4.470;2022-08-11T10:15:07;33.30;46.20
28189;DHT22;15471;51.166;4.470;2022-08-11T10:18:01;33.10;45.80
28189;DHT22;15471;51.166;4.470;2022-08-11T10:20:49;33.00;46.00
28189;DHT22;15471;51.166;4.470;2022-08-11T10:23:15;33.20;45.70
28189;DHT22;15471;51.166;4.470;2022-08-11T10:26:00;33.10;46.00
28189;DHT22;15471;51.166;4.470;2022-08-11T10:28:46;33.30;46.10
28189;DHT22;15471;51.166;4.470;2022-08-11T10:31:12;33.70;44.20
28189;DHT22;15471;51.166;4.470;2022-08-11T10:33:57;33.10;46.00
28189;DHT22;15471;51.166;4.470;2022-08-11T10:36:39;32.90;45.30
28189;DHT22;15471;51.166;4.470;2022-08-11T10:39:10;32.70;46.00
28189;DHT22;15471;51.166;4.470;2022-08-11T10:41:46;32.50;46.10
28189;DHT22;15471;51.166;4.470;2022-08-11T10:44:36;32.50;46.10
28189;DHT22;15471;51.166;4.470;2022-08-11T10:47:03;32.40;46.30
28189;DHT22;15471;51.166;4.470;2022-08-11T10:49:48;32.30;47.00
28189;DHT22;15471;51.166;4.470;2022-08-11T10:52:35;32.50;45.00
28189;DHT22;15471;51.166;4.470;2022-08-11T10:55:21;32.10;45.90
28189;DHT22;15471;51.166;4.470;2022-08-11T10:58:07;31.80;46.90
28189;DHT22;15471;51.166;4.470;2022-08-11T11:00:52;31.90;47.60
28189;DHT22;15471;51.166;4.470;2022-08-11T11:03:24;31.80;47.50
28189;DHT22;15471;51.166;4.470;2022-08-11T11:05:54;31.80;46.60
28189;DHT22;15471;51.166;4.470;2022-08-11T11:08:27;31.90;47.00
28189;DHT22;15471;51.166;4.470;2022-08-11T11:11:13;31.70;46.00
28189;DHT22;15471;51.166;4.470;2022-08-11T11:13:46;31.50;46.50
28189;DHT22;15471;51.166;4.470;2022-08-11T11:16:32;31.30;47.20
28189;DHT22;15471;51.166;4.470;2022-08-11T11:19:21;31.30;47.60
28189;DHT22;15471;51.166;4.470;2022-08-11T11:21:52;31.40;46.90
28189;DHT22;15471;51.166;4.470;2022-08-11T11:24:44;31.40;47.10
28189;DHT22;15471;51.166;4.470;2022-08-11T11:27:48;31.40;46.80
28189;DHT22;15471;51.166;4.470;2022-08-11T11:30:17;31.30;46.90
28189;DHT22;15471;51.166;4.470;2022-08-11T11:32:58;31.20;47.50
28189;DHT22;15471;51.166;4.470;2022-08-11T11:35:37;31.30;47.90
28189;DHT22;15471;51.166;4.470;2022-08-11T11:38:09;31.50;47.20
28189;DHT22;15471;51.166;4.470;2022-08-11T11:40:35;31.70;47.20
28189;DHT22;15471;51.166;4.470;2022-08-11T11:43:03;31.80;46.90
28189;DHT22;15471;51.166;4.470;2022-08-11T11:45:29;31.70;45.90
28189;DHT22;15471;51.166;4.470;2022-08-11T11:47:57;31.60;46.40
28189;DHT22;15471;51.166;4.470;2022-08-11T11:50:35;31.70;46.50
28189;DHT22;15471;51.166;4.470;2022-08-11T11:53:05;31.70;46.60
28189;DHT22;15471;51.166;4.470;2022-08-11T11:55:31;31.90;46.50
28189;DHT22;15471;51.166;4.470;2022-08-11T11:58:01;31.90;46.50
28189;DHT22;15471;51.166;4.470;2022-08-11T12:00:47;32.00;45.00
28189;DHT22;15471;51.166;4.470;2022-08-11T12:03:34;32.00;45.50
28189;DHT22;15471;51.166;4.470;2022-08-11T12:06:02;31.80;45.90
28189;DHT22;15471;51.166;4.470;2022-08-11T12:08:29;31.70;45.70
28189;DHT22;15471;51.166;4.470;2022-08-11T12:11:02;31.70;45.60
28189;DHT22;15471;51.166;4.470;2022-08-11T12:13:50;31.70;45.70
28189;DHT22;15471;51.166;4.470;2022-08-11T12:16:20;31.90;45.90
28189;DHT22;15471;51.166;4.470;2022-08-11T12:18:49;32.00;45.50
28189;DHT22;15471;51.166;4.470;2022-08-11T12:21:16;32.00;45.60
28189;DHT22;15471;51.166;4.470;2022-08-11T12:23:44;31.90;45.30
28189;DHT22;15471;51.166;4.470;2022-08-11T12:26:30;32.00;45.70
28189;DHT22;15471;51.166;4.470;2022-08-11T12:29:18;32.10;45.40
28189;DHT22;15471;51.166;4.470;2022-08-11T12:31:45;32.30;45.50
28189;DHT22;15471;51.166;4.470;2022-08-11T12:34:13;32.30;45.00
28189;DHT22;15471;51.166;4.470;2022-08-11T12:36:49;32.30;44.30
28189;DHT22;15471;51.166;4.470;2022-08-11T12:39:19;32.40;43.90
28189;DHT22;15471;51.166;4.470;2022-08-11T12:42:06;32.40;44.00
28189;DHT22;15471;51.166;4.470;2022-08-11T12:44:51;32.40;43.60
28189;DHT22;15471;51.166;4.470;2022-08-11T12:47:36;32.60;43.60
28189;DHT22;15471;51.166;4.470;2022-08-11T12:50:22;32.50;43.00
28189;DHT22;15471;51.166;4.470;2022-08-11T12:53:08;32.50;43.60
28189;DHT22;15471;51.166;4.470;2022-08-11T12:55:36;32.50;42.80
28189;DHT22;15471;51.166;4.470;2022-08-11T12:58:27;32.50;43.40
28189;DHT22;15471;51.166;4.470;2022-08-11T13:00:55;32.60;42.90
28189;DHT22;15471;51.166;4.470;2022-08-11T13:03:39;32.70;42.20
28189;DHT22;15471;51.166;4.470;2022-08-11T13:06:24;32.80;42.30
28189;DHT22;15471;51.166;4.470;2022-08-11T13:08:50;32.80;42.60
28189;DHT22;15471;51.166;4.470;2022-08-11T13:11:17;32.80;42.80
28189;DHT22;15471;51.166;4.470;2022-08-11T13:14:02;32.90;42.20
28189;DHT22;15471;51.166;4.470;2022-08-11T13:16:31;33.00;42.00
28189;DHT22;15471;51.166;4.470;2022-08-11T13:19:18;33.00;42.40
28189;DHT22;15471;51.166;4.470;2022-08-11T13:21:45;33.10;41.90
28189;DHT22;15471;51.166;4.470;2022-08-11T13:24:11;33.20;42.20
28189;DHT22;15471;51.166;4.470;2022-08-11T13:26:38;33.20;42.10
28189;DHT22;15471;51.166;4.470;2022-08-11T13:29:04;33.40;41.80
28189;DHT22;15471;51.166;4.470;2022-08-11T13:31:32;33.60;40.60
28189;DHT22;15471;51.166;4.470;2022-08-11T13:33:58;33.50;41.70
28189;DHT22;15471;51.166;4.470;2022-08-11T13:36:24;33.50;41.20
28189;DHT22;15471;51.166;4.470;2022-08-11T13:38:54;33.50;40.90
28189;DHT22;15471;51.166;4.470;2022-08-11T13:41:21;33.40;41.90
28189;DHT22;15471;51.166;4.470;2022-08-11T13:44:05;33.30;41.60
28189;DHT22;15471;51.166;4.470;2022-08-11T13:46:31;33.30;41.60
28189;DHT22;15471;51.166;4.470;2022-08-11T13:48:58;33.20;42.10
28189;DHT22;15471;51.166;4.470;2022-08-11T13:51:25;33.50;40.50
28189;DHT22;15471;51.166;4.470;2022-08-11T13:56:32;33.50;41.00
28189;DHT22;15471;51.166;4.470;2022-08-11T13:58:58;33.40;41.80
28189;DHT22;15471;51.166;4.470;2022-08-11T14:01:29;33.60;40.80
28189;DHT22;15471;51.166;4.470;2022-08-11T14:04:02;33.50;41.70
28189;DHT22;15471;51.166;4.470;2022-08-11T14:06:30;33.70;41.00
28189;DHT22;15471;51.166;4.470;2022-08-11T14:08:57;34.00;39.40
28189;DHT22;15471;51.166;4.470;2022-08-11T14:11:24;34.10;39.90
28189;DHT22;15471;51.166;4.470;2022-08-11T14:14:12;34.10;39.50
28189;DHT22;15471;51.166;4.470;2022-08-11T14:16:42;33.70;40.50
28189;DHT22;15471;51.166;4.470;2022-08-11T14:19:12;33.50;41.30
28189;DHT22;15471;51.166;4.470;2022-08-11T14:21:41;33.40;41.00
28189;DHT22;15471;51.166;4.470;2022-08-11T14:24:27;33.60;40.00
28189;DHT22;15471;51.166;4.470;2022-08-11T14:26:53;33.50;40.40
28189;DHT22;15471;51.166;4.470;2022-08-11T14:29:21;33.50;40.40
28189;DHT22;15471;51.166;4.470;2022-08-11T14:31:56;33.60;40.50
28189;DHT22;15471;51.166;4.470;2022-08-11T14:34:24;33.60;41.10
28189;DHT22;15471;51.166;4.470;2022-08-11T14:36:54;33.60;40.50
28189;DHT22;15471;51.166;4.470;2022-08-11T14:39:30;33.70;41.10
28189;DHT22;15471;51.166;4.470;2022-08-11T14:42:03;33.80;40.80
28189;DHT22;15471;51.166;4.470;2022-08-11T14:44:55;33.90;40.10
28189;DHT22;15471;51.166;4.470;2022-08-11T14:47:50;34.00;39.70
28189;DHT22;15471;51.166;4.470;2022-08-11T14:50:19;33.80;40.20
28189;DHT22;15471;51.166;4.470;2022-08-11T14:52:58;33.80;39.90
28189;DHT22;15471;51.166;4.470;2022-08-11T14:55:26;33.90;39.40
28189;DHT22;15471;51.166;4.470;2022-08-11T14:58:15;33.90;39.80
28189;DHT22;15471;51.166;4.470;2022-08-11T15:00:42;34.20;39.50
28189;DHT22;15471;51.166;4.470;2022-08-11T15:03:11;34.30;38.10
28189;DHT22;15471;51.166;4.470;2022-08-11T15:05:40;34.30;39.70
28189;DHT22;15471;51.166;4.470;2022-08-11T15:08:08;34.10;38.70
28189;DHT22;15471;51.166;4.470;2022-08-11T15:10:35;34.10;38.70
28189;DHT22;15471;51.166;4.470;2022-08-11T15:13:01;34.10;38.40
28189;DHT22;15471;51.166;4.470;2022-08-11T15:15:28;34.10;38.80
28189;DHT22;15471;51.166;4.470;2022-08-11T15:18:14;34.20;38.80
28189;DHT22;15471;51.166;4.470;2022-08-11T15:20:41;34.20;39.10
28189;DHT22;15471;51.166;4.470;2022-08-11T15:23:26;34.50;38.60
28189;DHT22;15471;51.166;4.470;2022-08-11T15:26:36;34.80;37.80
28189;DHT22;15471;51.166;4.470;2022-08-11T15:29:28;34.80;37.10
28189;DHT22;15471;51.166;4.470;2022-08-11T15:32:14;34.80;37.10
28189;DHT22;15471;51.166;4.470;2022-08-11T15:35:01;34.60;37.80
28189;DHT22;15471;51.166;4.470;2022-08-11T15:37:49;34.80;36.90
28189;DHT22;15471;51.166;4.470;2022-08-11T15:40:21;35.00;37.20
28189;DHT22;15471;51.166;4.470;2022-08-11T15:46:22;38.80;33.80
28189;DHT22;15471;51.166;4.470;2022-08-11T15:49:44;41.60;30.80
28189;DHT22;15471;51.166;4.470;2022-08-11T15:52:18;43.40;29.20
28189;DHT22;15471;51.166;4.470;2022-08-11T15:54:46;43.90;28.60
28189;DHT22;15471;51.166;4.470;2022-08-11T15:57:17;44.30;28.20
28189;DHT22;15471;51.166;4.470;2022-08-11T16:00:04;45.30;27.60
28189;DHT22;15471;51.166;4.470;2022-08-11T16:02:50;46.00;27.20
28189;DHT22;15471;51.166;4.470;2022-08-11T16:05:36;46.70;26.40
28189;DHT22;15471;51.166;4.470;2022-08-11T16:08:03;47.30;25.90
28189;DHT22;15471;51.166;4.470;2022-08-11T16:10:29;47.50;25.50
28189;DHT22;15471;51.166;4.470;2022-08-11T16:12:59;47.50;25.40
28189;DHT22;15471;51.166;4.470;2022-08-11T16:15:53;48.80;24.90
28189;DHT22;15471;51.166;4.470;2022-08-11T16:18:42;50.30;23.70
28189;DHT22;15471;51.166;4.470;2022-08-11T16:21:12;51.70;22.60
28189;DHT22;15471;51.166;4.470;2022-08-11T16:23:42;52.30;22.30
28189;DHT22;15471;51.166;4.470;2022-08-11T16:26:09;53.10;22.50
28189;DHT22;15471;51.166;4.470;2022-08-11T16:28:37;54.60;21.30
28189;DHT22;15471;51.166;4.470;2022-08-11T16:31:06;54.80;21.30
28189;DHT22;15471;51.166;4.470;2022-08-11T16:33:39;53.50;21.30
28189;DHT22;15471;51.166;4.470;2022-08-11T16:36:08;53.20;21.60
28189;DHT22;15471;51.166;4.470;2022-08-11T16:38:54;53.00;21.20
28189;DHT22;15471;51.166;4.470;2022-08-11T16:41:23;52.50;21.60
28189;DHT22;15471;51.166;4.470;2022-08-11T16:44:13;51.90;21.60
28189;DHT22;15471;51.166;4.470;2022-08-11T16:46:57;51.80;22.00
28189;DHT22;15471;51.166;4.470;2022-08-11T16:49:37;51.50;21.40
28189;DHT22;15471;51.166;4.470;2022-08-11T16:52:06;51.40;21.90
28189;DHT22;15471;51.166;4.470;2022-08-11T16:54:37;51.10;21.60
28189;DHT22;15471;51.166;4.470;2022-08-11T16:57:14;51.00;21.80
28189;DHT22;15471;51.166;4.470;2022-08-11T17:00:03;50.90;21.90
28189;DHT22;15471;51.166;4.470;2022-08-11T17:02:42;50.60;22.20
28189;DHT22;15471;51.166;4.470;2022-08-11T17:05:30;50.80;22.50
28189;DHT22;15471;51.166;4.470;2022-08-11T17:08:17;50.00;22.60
28189;DHT22;15471;51.166;4.470;2022-08-11T17:11:06;50.30;22.50
28189;DHT22;15471;51.166;4.470;2022-08-11T17:13:57;50.50;22.60
28189;DHT22;15471;51.166;4.470;2022-08-11T17:16:33;50.40;22.40
28189;DHT22;15471;51.166;4.470;2022-08-11T17:21:28;49.20;23.20
28189;DHT22;15471;51.166;4.470;2022-08-11T17:24:01;48.90;23.00
28189;DHT22;15471;51.166;4.470;2022-08-11T17:29:32;47.60;23.90
28189;DHT22;15471;51.166;4.470;2022-08-11T17:32:22;46.40;24.40
28189;DHT22;15471;51.166;4.470;2022-08-11T17:35:10;44.50;25.60
28189;DHT22;15471;51.166;4.470;2022-08-11T17:38:03;41.80;27.40
28189;DHT22;15471;51.166;4.470;2022-08-11T17:40:33;39.80;28.60
28189;DHT22;15471;51.166;4.470;2022-08-11T17:43:02;38.50;30.10
28189;DHT22;15471;51.166;4.470;2022-08-11T17:45:47;37.50;30.90
28189;DHT22;15471;51.166;4.470;2022-08-11T17:48:39;36.70;31.80
28189;DHT22;15471;51.166;4.470;2022-08-11T17:51:12;35.90;33.00
28189;DHT22;15471;51.166;4.470;2022-08-11T17:53:59;35.40;33.40
28189;DHT22;15471;51.166;4.470;2022-08-11T17:56:45;34.70;34.20
28189;DHT22;15471;51.166;4.470;2022-08-11T17:59:31;34.30;35.00
28189;DHT22;15471;51.166;4.470;2022-08-11T18:02:18;33.90;35.70
28189;DHT22;15471;51.166;4.470;2022-08-11T18:05:04;33.50;36.60
28189;DHT22;15471;51.166;4.470;2022-08-11T18:07:30;33.20;36.90
28189;DHT22;15471;51.166;4.470;2022-08-11T18:10:16;33.00;37.10
28189;DHT22;15471;51.166;4.470;2022-08-11T18:13:03;32.80;37.70
28189;DHT22;15471;51.166;4.470;2022-08-11T18:15:49;32.60;37.80
28189;DHT22;15471;51.166;4.470;2022-08-11T18:18:34;32.40;38.20
28189;DHT22;15471;51.166;4.470;2022-08-11T18:21:20;32.20;38.50
28189;DHT22;15471;51.166;4.470;2022-08-11T18:24:09;32.00;39.10
28189;DHT22;15471;51.166;4.470;2022-08-11T18:26:58;31.80;39.50
28189;DHT22;15471;51.166;4.470;2022-08-11T18:29:44;31.50;40.00
28189;DHT22;15471;51.166;4.470;2022-08-11T18:32:31;31.40;40.10
28189;DHT22;15471;51.166;4.470;2022-08-11T18:35:22;31.20;40.40
28189;DHT22;15471;51.166;4.470;2022-08-11T18:38:10;31.00;40.70
28189;DHT22;15471;51.166;4.470;2022-08-11T18:40:56;30.90;41.20
28189;DHT22;15471;51.166;4.470;2022-08-11T18:43:44;30.70;41.50
28189;DHT22;15471;51.166;4.470;2022-08-11T18:46:33;30.60;41.70
28189;DHT22;15471;51.166;4.470;2022-08-11T18:49:24;30.50;41.80
28189;DHT22;15471;51.166;4.470;2022-08-11T18:52:10;30.30;42.30
28189;DHT22;15471;51.166;4.470;2022-08-11T18:54:59;30.20;42.40
28189;DHT22;15471;51.166;4.470;2022-08-11T18:57:47;30.10;42.70
28189;DHT22;15471;51.166;4.470;2022-08-11T19:00:34;29.90;42.90
28189;DHT22;15471;51.166;4.470;2022-08-11T19:03:20;29.80;43.40
28189;DHT22;15471;51.166;4.470;2022-08-11T19:06:06;29.70;43.40
28189;DHT22;15471;51.166;4.470;2022-08-11T19:08:56;29.60;43.90
28189;DHT22;15471;51.166;4.470;2022-08-11T19:11:42;29.50;44.00
28189;DHT22;15471;51.166;4.470;2022-08-11T19:14:29;29.30;44.40
28189;DHT22;15471;51.166;4.470;2022-08-11T19:17:15;29.20;44.50
28189;DHT22;15471;51.166;4.470;2022-08-11T19:20:07;29.10;45.20
28189;DHT22;15471;51.166;4.470;2022-08-11T19:22:54;28.90;45.60
28189;DHT22;15471;51.166;4.470;2022-08-11T19:25:39;28.70;46.30
28189;DHT22;15471;51.166;4.470;2022-08-11T19:28:25;28.60;46.60
28189;DHT22;15471;51.166;4.470;2022-08-11T19:31:10;28.40;46.80
28189;DHT22;15471;51.166;4.470;2022-08-11T19:33:55;28.30;47.80
28189;DHT22;15471;51.166;4.470;2022-08-11T19:36:42;28.10;48.50
28189;DHT22;15471;51.166;4.470;2022-08-11T19:39:27;27.90;48.30
28189;DHT22;15471;51.166;4.470;2022-08-11T19:42:13;27.80;48.50
28189;DHT22;15471;51.166;4.470;2022-08-11T19:44:59;27.60;48.80
28189;DHT22;15471;51.166;4.470;2022-08-11T19:47:45;27.50;49.10
28189;DHT22;15471;51.166;4.470;2022-08-11T19:50:35;27.40;49.50
28189;DHT22;15471;51.166;4.470;2022-08-11T19:53:21;27.30;49.90
28189;DHT22;15471;51.166;4.470;2022-08-11T19:56:07;27.20;50.40
28189;DHT22;15471;51.166;4.470;2022-08-11T19:58:52;27.10;51.00
28189;DHT22;15471;51.166;4.470;2022-08-11T20:01:38;27.00;51.20
28189;DHT22;15471;51.166;4.470;2022-08-11T20:04:22;26.90;51.70